Terminal Aerodrome Forecast
Issued by NWS Wilmington, OH

Current Version | Previous Version | Text Only | Print | Product List | Glossary Off
Versions: 1 2 3 4 5 6 7 8 9 10 11 12 13 14 15 16 17 18 19 20 21 22 23 24 25 26 27 28 29

000
FTUS41 KILN 190500
TAFILN
TAF
KILN 190539Z 1906/2006 00000KT 2SM BR SCT040
     FM190800 00000KT 1SM BR FEW001 SCT040
      TEMPO 1909/1912 1/2SM FG BKN001
     FM191300 VRB03KT 2SM BR SCT040
     FM191400 23006KT P6SM SCT040
     FM191800 23009KT P6SM BKN040
     FM200300 23007KT P6SM VCTS BKN040CB=

USA.gov is the U.S. government's official web portal to all federal, state and local government web resources and services.